sensor_id;sensor_type;location;lat;lon;timestamp;temperature;humidity
2955;DHT22;1487;51.470;6.938;2023-04-03T00:00:48;1.20;99.90
2955;DHT22;1487;51.470;6.938;2023-04-03T00:03:16;1.20;99.90
2955;DHT22;1487;51.470;6.938;2023-04-03T00:05:42;1.20;99.90
2955;DHT22;1487;51.470;6.938;2023-04-03T00:08:11;1.10;99.90
2955;DHT22;1487;51.470;6.938;2023-04-03T00:10:38;1.10;99.90
2955;DHT22;1487;51.470;6.938;2023-04-03T00:13:05;1.10;99.90
2955;DHT22;1487;51.470;6.938;2023-04-03T00:15:32;1.10;99.90
2955;DHT22;1487;51.470;6.938;2023-04-03T00:18:00;1.10;99.90
2955;DHT22;1487;51.470;6.938;2023-04-03T00:20:27;1.10;99.90
2955;DHT22;1487;51.470;6.938;2023-04-03T00:22:54;1.10;99.90
2955;DHT22;1487;51.470;6.938;2023-04-03T00:25:22;1.20;99.90
2955;DHT22;1487;51.470;6.938;2023-04-03T00:27:49;1.10;99.90
2955;DHT22;1487;51.470;6.938;2023-04-03T00:30:18;1.10;99.90
2955;DHT22;1487;51.470;6.938;2023-04-03T00:32:47;1.00;99.90
2955;DHT22;1487;51.470;6.938;2023-04-03T00:35:14;1.00;99.90
2955;DHT22;1487;51.470;6.938;2023-04-03T00:37:42;1.10;99.90
2955;DHT22;1487;51.470;6.938;2023-04-03T00:40:09;1.00;99.90
2955;DHT22;1487;51.470;6.938;2023-04-03T00:42:39;0.90;99.90
2955;DHT22;1487;51.470;6.938;2023-04-03T00:45:30;1.00;99.90
2955;DHT22;1487;51.470;6.938;2023-04-03T00:47:58;1.00;99.90
2955;DHT22;1487;51.470;6.938;2023-04-03T00:50:27;0.90;99.90
2955;DHT22;1487;51.470;6.938;2023-04-03T00:52:54;0.90;99.90
2955;DHT22;1487;51.470;6.938;2023-04-03T00:55:22;0.80;99.90
2955;DHT22;1487;51.470;6.938;2023-04-03T00:57:51;0.80;99.90
2955;DHT22;1487;51.470;6.938;2023-04-03T01:00:20;0.80;99.90
2955;DHT22;1487;51.470;6.938;2023-04-03T01:02:48;0.80;99.90
2955;DHT22;1487;51.470;6.938;2023-04-03T01:05:16;0.80;99.90
2955;DHT22;1487;51.470;6.938;2023-04-03T01:07:43;0.80;99.90
2955;DHT22;1487;51.470;6.938;2023-04-03T01:10:12;0.80;99.90
2955;DHT22;1487;51.470;6.938;2023-04-03T01:12:42;0.80;99.90
2955;DHT22;1487;51.470;6.938;2023-04-03T01:15:13;0.80;99.90
2955;DHT22;1487;51.470;6.938;2023-04-03T01:17:42;0.80;99.90
2955;DHT22;1487;51.470;6.938;2023-04-03T01:25:54;1.00;99.90
2955;DHT22;1487;51.470;6.938;2023-04-03T01:28:23;1.00;99.90
2955;DHT22;1487;51.470;6.938;2023-04-03T01:30:56;1.00;99.90
2955;DHT22;1487;51.470;6.938;2023-04-03T01:33:26;1.10;99.90
2955;DHT22;1487;51.470;6.938;2023-04-03T01:35:53;1.10;99.90
2955;DHT22;1487;51.470;6.938;2023-04-03T01:38:20;1.00;99.90
2955;DHT22;1487;51.470;6.938;2023-04-03T01:40:46;1.10;99.90
2955;DHT22;1487;51.470;6.938;2023-04-03T01:43:13;1.10;99.90
2955;DHT22;1487;51.470;6.938;2023-04-03T01:45:40;1.10;99.90
2955;DHT22;1487;51.470;6.938;2023-04-03T01:48:07;1.10;99.90
2955;DHT22;1487;51.470;6.938;2023-04-03T01:50:35;1.10;99.90
2955;DHT22;1487;51.470;6.938;2023-04-03T01:53:02;1.10;99.90
2955;DHT22;1487;51.470;6.938;2023-04-03T01:55:29;1.10;99.90
2955;DHT22;1487;51.470;6.938;2023-04-03T01:57:55;1.00;99.90
2955;DHT22;1487;51.470;6.938;2023-04-03T02:00:22;1.00;99.90
2955;DHT22;1487;51.470;6.938;2023-04-03T02:02:49;1.00;99.90
2955;DHT22;1487;51.470;6.938;2023-04-03T02:05:16;0.90;99.90
2955;DHT22;1487;51.470;6.938;2023-04-03T02:07:44;0.90;99.90
2955;DHT22;1487;51.470;6.938;2023-04-03T02:10:11;0.90;99.90
2955;DHT22;1487;51.470;6.938;2023-04-03T02:12:38;0.90;99.90
2955;DHT22;1487;51.470;6.938;2023-04-03T02:15:06;0.90;99.90
2955;DHT22;1487;51.470;6.938;2023-04-03T02:17:33;0.90;99.90
2955;DHT22;1487;51.470;6.938;2023-04-03T02:20:01;0.90;99.90
2955;DHT22;1487;51.470;6.938;2023-04-03T02:22:28;0.90;99.90
2955;DHT22;1487;51.470;6.938;2023-04-03T02:24:56;0.90;99.90
2955;DHT22;1487;51.470;6.938;2023-04-03T02:27:23;0.90;99.90
2955;DHT22;1487;51.470;6.938;2023-04-03T02:29:50;0.90;99.90
2955;DHT22;1487;51.470;6.938;2023-04-03T02:32:17;0.80;99.90
2955;DHT22;1487;51.470;6.938;2023-04-03T02:34:43;0.80;99.90
2955;DHT22;1487;51.470;6.938;2023-04-03T02:37:10;0.80;99.90
2955;DHT22;1487;51.470;6.938;2023-04-03T02:39:37;0.70;99.90
2955;DHT22;1487;51.470;6.938;2023-04-03T02:42:05;0.70;99.90
2955;DHT22;1487;51.470;6.938;2023-04-03T02:44:32;0.70;99.90
2955;DHT22;1487;51.470;6.938;2023-04-03T02:46:59;0.70;99.90
2955;DHT22;1487;51.470;6.938;2023-04-03T02:49:26;0.70;99.90
2955;DHT22;1487;51.470;6.938;2023-04-03T02:51:52;0.80;99.90
2955;DHT22;1487;51.470;6.938;2023-04-03T02:54:19;0.70;99.90
2955;DHT22;1487;51.470;6.938;2023-04-03T02:56:47;0.60;99.90
2955;DHT22;1487;51.470;6.938;2023-04-03T02:59:16;0.60;99.90
2955;DHT22;1487;51.470;6.938;2023-04-03T03:01:42;0.60;99.90
2955;DHT22;1487;51.470;6.938;2023-04-03T03:04:09;0.60;99.90
2955;DHT22;1487;51.470;6.938;2023-04-03T03:06:36;0.60;99.90
2955;DHT22;1487;51.470;6.938;2023-04-03T03:09:03;0.70;99.90
2955;DHT22;1487;51.470;6.938;2023-04-03T03:11:31;0.70;99.90
2955;DHT22;1487;51.470;6.938;2023-04-03T03:13:57;0.70;99.90
2955;DHT22;1487;51.470;6.938;2023-04-03T03:16:26;0.70;99.90
2955;DHT22;1487;51.470;6.938;2023-04-03T03:18:53;0.60;99.90
2955;DHT22;1487;51.470;6.938;2023-04-03T03:21:19;0.60;99.90
2955;DHT22;1487;51.470;6.938;2023-04-03T03:23:46;0.60;99.90
2955;DHT22;1487;51.470;6.938;2023-04-03T03:26:13;0.60;99.90
2955;DHT22;1487;51.470;6.938;2023-04-03T03:28:40;0.60;99.90
2955;DHT22;1487;51.470;6.938;2023-04-03T03:31:08;0.60;99.90
2955;DHT22;1487;51.470;6.938;2023-04-03T03:33:36;0.60;99.90
2955;DHT22;1487;51.470;6.938;2023-04-03T03:36:04;0.60;99.90
2955;DHT22;1487;51.470;6.938;2023-04-03T03:38:31;0.60;99.90
2955;DHT22;1487;51.470;6.938;2023-04-03T03:40:57;0.70;99.90
2955;DHT22;1487;51.470;6.938;2023-04-03T03:43:24;0.60;99.90
2955;DHT22;1487;51.470;6.938;2023-04-03T03:45:51;0.60;99.90
2955;DHT22;1487;51.470;6.938;2023-04-03T03:48:19;0.60;99.90
2955;DHT22;1487;51.470;6.938;2023-04-03T03:50:47;0.60;99.90
2955;DHT22;1487;51.470;6.938;2023-04-03T03:53:14;0.60;99.90
2955;DHT22;1487;51.470;6.938;2023-04-03T03:55:41;0.60;99.90
2955;DHT22;1487;51.470;6.938;2023-04-03T03:58:09;0.50;99.90
2955;DHT22;1487;51.470;6.938;2023-04-03T04:00:36;0.50;99.90
2955;DHT22;1487;51.470;6.938;2023-04-03T04:03:02;0.50;99.90
2955;DHT22;1487;51.470;6.938;2023-04-03T04:05:30;0.50;99.90
2955;DHT22;1487;51.470;6.938;2023-04-03T04:07:58;0.50;99.90
2955;DHT22;1487;51.470;6.938;2023-04-03T04:10:25;0.60;99.90
2955;DHT22;1487;51.470;6.938;2023-04-03T04:12:52;0.60;99.90
2955;DHT22;1487;51.470;6.938;2023-04-03T04:15:19;0.60;99.90
2955;DHT22;1487;51.470;6.938;2023-04-03T04:17:47;0.60;99.90
2955;DHT22;1487;51.470;6.938;2023-04-03T04:20:13;0.60;99.90
2955;DHT22;1487;51.470;6.938;2023-04-03T04:22:40;0.60;99.90
2955;DHT22;1487;51.470;6.938;2023-04-03T04:25:09;0.60;99.90
2955;DHT22;1487;51.470;6.938;2023-04-03T04:27:36;0.60;99.90
2955;DHT22;1487;51.470;6.938;2023-04-03T04:30:04;0.60;99.90
2955;DHT22;1487;51.470;6.938;2023-04-03T04:32:31;0.50;99.90
2955;DHT22;1487;51.470;6.938;2023-04-03T04:34:58;0.50;99.90
2955;DHT22;1487;51.470;6.938;2023-04-03T04:37:25;0.50;99.90
2955;DHT22;1487;51.470;6.938;2023-04-03T04:39:52;0.50;99.90
2955;DHT22;1487;51.470;6.938;2023-04-03T04:42:20;0.40;99.90
2955;DHT22;1487;51.470;6.938;2023-04-03T04:44:46;0.30;99.90
2955;DHT22;1487;51.470;6.938;2023-04-03T04:47:13;0.20;99.90
2955;DHT22;1487;51.470;6.938;2023-04-03T04:49:40;0.10;99.90
2955;DHT22;1487;51.470;6.938;2023-04-03T04:52:07;0.10;99.90
2955;DHT22;1487;51.470;6.938;2023-04-03T04:54:33;0.10;99.90
2955;DHT22;1487;51.470;6.938;2023-04-03T04:57:00;0.10;99.90
2955;DHT22;1487;51.470;6.938;2023-04-03T04:59:28;0.10;99.90
2955;DHT22;1487;51.470;6.938;2023-04-03T05:01:55;0.10;99.90
2955;DHT22;1487;51.470;6.938;2023-04-03T05:04:22;0.00;99.90
2955;DHT22;1487;51.470;6.938;2023-04-03T05:06:49;0.00;99.90
2955;DHT22;1487;51.470;6.938;2023-04-03T05:09:16;0.00;99.90
2955;DHT22;1487;51.470;6.938;2023-04-03T05:11:42;0.00;99.90
2955;DHT22;1487;51.470;6.938;2023-04-03T05:14:09;0.00;99.90
2955;DHT22;1487;51.470;6.938;2023-04-03T05:16:37;0.00;99.90
2955;DHT22;1487;51.470;6.938;2023-04-03T05:19:04;0.00;99.90
2955;DHT22;1487;51.470;6.938;2023-04-03T05:21:31;0.10;99.90
2955;DHT22;1487;51.470;6.938;2023-04-03T05:23:58;0.00;99.90
2955;DHT22;1487;51.470;6.938;2023-04-03T05:26:28;0.00;99.90
2955;DHT22;1487;51.470;6.938;2023-04-03T05:28:55;0.10;99.90
2955;DHT22;1487;51.470;6.938;2023-04-03T05:31:22;0.20;99.90
2955;DHT22;1487;51.470;6.938;2023-04-03T05:33:50;0.20;99.90
2955;DHT22;1487;51.470;6.938;2023-04-03T05:36:17;0.30;99.90
2955;DHT22;1487;51.470;6.938;2023-04-03T05:38:44;0.30;99.90
2955;DHT22;1487;51.470;6.938;2023-04-03T05:41:12;0.40;99.90
2955;DHT22;1487;51.470;6.938;2023-04-03T05:43:38;0.50;99.90
2955;DHT22;1487;51.470;6.938;2023-04-03T05:46:09;0.50;99.90
2955;DHT22;1487;51.470;6.938;2023-04-03T05:48:36;0.60;99.90
2955;DHT22;1487;51.470;6.938;2023-04-03T05:51:06;0.70;99.90
2955;DHT22;1487;51.470;6.938;2023-04-03T05:53:35;0.80;99.90
2955;DHT22;1487;51.470;6.938;2023-04-03T05:56:02;0.90;99.90
2955;DHT22;1487;51.470;6.938;2023-04-03T05:58:29;1.00;99.90
2955;DHT22;1487;51.470;6.938;2023-04-03T06:00:56;1.20;99.90
2955;DHT22;1487;51.470;6.938;2023-04-03T06:03:23;1.70;99.90
2955;DHT22;1487;51.470;6.938;2023-04-03T06:05:50;2.40;99.90
2955;DHT22;1487;51.470;6.938;2023-04-03T06:08:18;3.00;99.90
2955;DHT22;1487;51.470;6.938;2023-04-03T06:10:45;3.60;99.90
2955;DHT22;1487;51.470;6.938;2023-04-03T06:13:12;4.40;99.90
2955;DHT22;1487;51.470;6.938;2023-04-03T06:15:39;5.30;99.90
2955;DHT22;1487;51.470;6.938;2023-04-03T06:18:06;6.40;99.90
2955;DHT22;1487;51.470;6.938;2023-04-03T06:20:33;7.80;99.90
2955;DHT22;1487;51.470;6.938;2023-04-03T06:23:00;8.90;99.90
2955;DHT22;1487;51.470;6.938;2023-04-03T06:25:29;9.80;99.90
2955;DHT22;1487;51.470;6.938;2023-04-03T06:27:57;10.50;99.90
2955;DHT22;1487;51.470;6.938;2023-04-03T06:30:24;11.60;97.70
2955;DHT22;1487;51.470;6.938;2023-04-03T06:32:51;11.80;92.10
2955;DHT22;1487;51.470;6.938;2023-04-03T06:35:18;12.10;88.90
2955;DHT22;1487;51.470;6.938;2023-04-03T06:37:44;12.60;85.80
2955;DHT22;1487;51.470;6.938;2023-04-03T06:40:16;12.70;83.40
2955;DHT22;1487;51.470;6.938;2023-04-03T06:42:45;13.30;81.90
2955;DHT22;1487;51.470;6.938;2023-04-03T06:45:12;13.20;77.30
2955;DHT22;1487;51.470;6.938;2023-04-03T06:47:39;13.30;78.30
2955;DHT22;1487;51.470;6.938;2023-04-03T06:50:06;13.60;75.30
2955;DHT22;1487;51.470;6.938;2023-04-03T06:52:34;14.10;73.70
2955;DHT22;1487;51.470;6.938;2023-04-03T06:55:01;14.70;72.10
2955;DHT22;1487;51.470;6.938;2023-04-03T06:57:27;14.90;69.30
2955;DHT22;1487;51.470;6.938;2023-04-03T06:59:56;15.40;71.60
2955;DHT22;1487;51.470;6.938;2023-04-03T07:02:23;15.80;67.90
2955;DHT22;1487;51.470;6.938;2023-04-03T07:04:49;16.40;65.90
2955;DHT22;1487;51.470;6.938;2023-04-03T07:07:16;17.00;65.20
2955;DHT22;1487;51.470;6.938;2023-04-03T07:09:43;17.60;64.20
2955;DHT22;1487;51.470;6.938;2023-04-03T07:12:12;18.20;61.30
2955;DHT22;1487;51.470;6.938;2023-04-03T07:14:39;18.80;59.00
2955;DHT22;1487;51.470;6.938;2023-04-03T07:17:08;17.80;56.50
2955;DHT22;1487;51.470;6.938;2023-04-03T07:19:35;17.20;57.40
2955;DHT22;1487;51.470;6.938;2023-04-03T07:22:02;17.40;57.20
2955;DHT22;1487;51.470;6.938;2023-04-03T07:24:28;17.20;56.80
2955;DHT22;1487;51.470;6.938;2023-04-03T07:26:55;16.90;56.60
2955;DHT22;1487;51.470;6.938;2023-04-03T07:29:22;17.40;58.00
2955;DHT22;1487;51.470;6.938;2023-04-03T07:31:49;17.80;56.10
2955;DHT22;1487;51.470;6.938;2023-04-03T07:34:17;17.20;55.90
2955;DHT22;1487;51.470;6.938;2023-04-03T07:36:44;17.00;55.80
2955;DHT22;1487;51.470;6.938;2023-04-03T07:39:11;16.90;55.80
2955;DHT22;1487;51.470;6.938;2023-04-03T07:41:37;16.70;56.50
2955;DHT22;1487;51.470;6.938;2023-04-03T07:44:05;17.20;55.60
2955;DHT22;1487;51.470;6.938;2023-04-03T07:46:35;17.50;56.00
2955;DHT22;1487;51.470;6.938;2023-04-03T07:49:01;17.20;55.20
2955;DHT22;1487;51.470;6.938;2023-04-03T07:51:30;16.80;55.00
2955;DHT22;1487;51.470;6.938;2023-04-03T07:53:56;17.00;55.10
2955;DHT22;1487;51.470;6.938;2023-04-03T07:56:24;16.90;54.30
2955;DHT22;1487;51.470;6.938;2023-04-03T07:58:51;17.20;54.60
2955;DHT22;1487;51.470;6.938;2023-04-03T08:01:19;16.60;54.10
2955;DHT22;1487;51.470;6.938;2023-04-03T08:03:46;16.70;54.70
2955;DHT22;1487;51.470;6.938;2023-04-03T08:06:13;17.30;54.50
2955;DHT22;1487;51.470;6.938;2023-04-03T08:08:42;17.90;54.10
2955;DHT22;1487;51.470;6.938;2023-04-03T08:11:10;18.00;53.20
2955;DHT22;1487;51.470;6.938;2023-04-03T08:13:37;17.20;52.30
2955;DHT22;1487;51.470;6.938;2023-04-03T08:16:09;17.60;53.20
2955;DHT22;1487;51.470;6.938;2023-04-03T08:18:36;17.00;54.00
2955;DHT22;1487;51.470;6.938;2023-04-03T08:21:06;17.70;55.40
2955;DHT22;1487;51.470;6.938;2023-04-03T08:23:33;18.60;53.50
2955;DHT22;1487;51.470;6.938;2023-04-03T08:26:07;19.20;54.50
2955;DHT22;1487;51.470;6.938;2023-04-03T08:28:34;19.80;52.60
2955;DHT22;1487;51.470;6.938;2023-04-03T08:31:03;20.20;51.40
2955;DHT22;1487;51.470;6.938;2023-04-03T08:33:32;20.60;52.60
2955;DHT22;1487;51.470;6.938;2023-04-03T08:35:59;20.40;49.50
2955;DHT22;1487;51.470;6.938;2023-04-03T08:38:26;20.50;49.80
2955;DHT22;1487;51.470;6.938;2023-04-03T08:41:01;20.80;50.90
2955;DHT22;1487;51.470;6.938;2023-04-03T08:43:36;21.20;50.00
2955;DHT22;1487;51.470;6.938;2023-04-03T08:46:11;20.90;49.00
2955;DHT22;1487;51.470;6.938;2023-04-03T08:48:41;21.50;50.40
2955;DHT22;1487;51.470;6.938;2023-04-03T08:51:13;21.50;47.40
2955;DHT22;1487;51.470;6.938;2023-04-03T08:53:43;21.80;46.60
2955;DHT22;1487;51.470;6.938;2023-04-03T08:56:12;21.50;47.30
2955;DHT22;1487;51.470;6.938;2023-04-03T08:58:49;21.30;48.00
2955;DHT22;1487;51.470;6.938;2023-04-03T09:01:21;20.80;47.90
2955;DHT22;1487;51.470;6.938;2023-04-03T09:03:49;20.40;47.50
2955;DHT22;1487;51.470;6.938;2023-04-03T09:06:19;20.70;46.40
2955;DHT22;1487;51.470;6.938;2023-04-03T09:09:04;21.20;46.80
2955;DHT22;1487;51.470;6.938;2023-04-03T09:11:41;21.30;45.80
2955;DHT22;1487;51.470;6.938;2023-04-03T09:14:16;20.50;47.00
2955;DHT22;1487;51.470;6.938;2023-04-03T09:16:50;19.80;43.90
2955;DHT22;1487;51.470;6.938;2023-04-03T09:19:34;19.30;42.70
2955;DHT22;1487;51.470;6.938;2023-04-03T09:22:12;18.40;42.80
2955;DHT22;1487;51.470;6.938;2023-04-03T09:24:41;17.80;44.00
2955;DHT22;1487;51.470;6.938;2023-04-03T09:27:10;18.30;45.10
2955;DHT22;1487;51.470;6.938;2023-04-03T09:29:41;18.90;43.70
2955;DHT22;1487;51.470;6.938;2023-04-03T09:32:20;18.60;43.10
2955;DHT22;1487;51.470;6.938;2023-04-03T09:34:49;18.20;43.90
2955;DHT22;1487;51.470;6.938;2023-04-03T09:37:39;17.90;45.80
2955;DHT22;1487;51.470;6.938;2023-04-03T09:40:29;18.60;45.30
2955;DHT22;1487;51.470;6.938;2023-04-03T09:42:57;18.90;44.30
2955;DHT22;1487;51.470;6.938;2023-04-03T09:45:28;19.20;42.80
2955;DHT22;1487;51.470;6.938;2023-04-03T09:48:07;18.80;44.70
2955;DHT22;1487;51.470;6.938;2023-04-03T09:50:35;18.90;42.50
2955;DHT22;1487;51.470;6.938;2023-04-03T09:53:06;19.10;42.30
2955;DHT22;1487;51.470;6.938;2023-04-03T09:55:42;19.40;42.20
2955;DHT22;1487;51.470;6.938;2023-04-03T09:58:24;20.10;41.90
2955;DHT22;1487;51.470;6.938;2023-04-03T10:00:57;20.50;40.60
2955;DHT22;1487;51.470;6.938;2023-04-03T10:03:27;20.10;41.00
2955;DHT22;1487;51.470;6.938;2023-04-03T10:05:54;19.40;41.00
2955;DHT22;1487;51.470;6.938;2023-04-03T10:08:25;18.80;39.20
2955;DHT22;1487;51.470;6.938;2023-04-03T10:11:11;18.20;39.20
2955;DHT22;1487;51.470;6.938;2023-04-03T10:13:55;17.10;41.00
2955;DHT22;1487;51.470;6.938;2023-04-03T10:16:29;16.80;41.20
2955;DHT22;1487;51.470;6.938;2023-04-03T10:19:34;17.20;43.00
2955;DHT22;1487;51.470;6.938;2023-04-03T10:22:06;17.60;42.70
2955;DHT22;1487;51.470;6.938;2023-04-03T10:24:44;17.50;41.80
2955;DHT22;1487;51.470;6.938;2023-04-03T10:27:20;17.40;41.20
2955;DHT22;1487;51.470;6.938;2023-04-03T10:29:53;17.40;41.30
2955;DHT22;1487;51.470;6.938;2023-04-03T10:32:43;16.90;41.30
2955;DHT22;1487;51.470;6.938;2023-04-03T10:35:18;16.80;42.40
2955;DHT22;1487;51.470;6.938;2023-04-03T10:37:56;17.30;43.10
2955;DHT22;1487;51.470;6.938;2023-04-03T10:40:30;17.30;41.50
2955;DHT22;1487;51.470;6.938;2023-04-03T10:43:04;16.80;41.90
2955;DHT22;1487;51.470;6.938;2023-04-03T10:45:50;16.60;42.30
2955;DHT22;1487;51.470;6.938;2023-04-03T10:48:28;16.60;44.20
2955;DHT22;1487;51.470;6.938;2023-04-03T10:51:01;16.70;45.60
2955;DHT22;1487;51.470;6.938;2023-04-03T10:53:35;17.40;44.60
2955;DHT22;1487;51.470;6.938;2023-04-03T10:56:09;17.30;43.50
2955;DHT22;1487;51.470;6.938;2023-04-03T10:58:41;17.50;43.50
2955;DHT22;1487;51.470;6.938;2023-04-03T11:01:13;17.40;43.30
2955;DHT22;1487;51.470;6.938;2023-04-03T11:03:45;17.20;43.60
2955;DHT22;1487;51.470;6.938;2023-04-03T11:06:15;17.20;45.80
2955;DHT22;1487;51.470;6.938;2023-04-03T11:08:45;17.00;44.40
2955;DHT22;1487;51.470;6.938;2023-04-03T11:11:15;17.20;45.90
2955;DHT22;1487;51.470;6.938;2023-04-03T11:13:46;17.80;48.00
2955;DHT22;1487;51.470;6.938;2023-04-03T11:16:19;18.00;46.70
2955;DHT22;1487;51.470;6.938;2023-04-03T11:18:52;18.50;47.00
2955;DHT22;1487;51.470;6.938;2023-04-03T11:21:24;18.00;43.90
2955;DHT22;1487;51.470;6.938;2023-04-03T11:23:53;18.20;43.50
2955;DHT22;1487;51.470;6.938;2023-04-03T11:26:27;17.90;43.20
2955;DHT22;1487;51.470;6.938;2023-04-03T11:28:59;17.10;43.00
2955;DHT22;1487;51.470;6.938;2023-04-03T11:31:37;17.40;46.20
2955;DHT22;1487;51.470;6.938;2023-04-03T11:34:23;17.50;45.20
2955;DHT22;1487;51.470;6.938;2023-04-03T11:36:55;17.50;45.80
2955;DHT22;1487;51.470;6.938;2023-04-03T11:39:25;17.70;43.70
2955;DHT22;1487;51.470;6.938;2023-04-03T11:41:53;17.50;43.50
2955;DHT22;1487;51.470;6.938;2023-04-03T11:44:33;17.40;44.40
2955;DHT22;1487;51.470;6.938;2023-04-03T11:47:02;17.00;43.70
2955;DHT22;1487;51.470;6.938;2023-04-03T11:49:57;16.60;43.80
2955;DHT22;1487;51.470;6.938;2023-04-03T11:55:56;16.50;44.80
2955;DHT22;1487;51.470;6.938;2023-04-03T11:58:24;16.50;44.90
2955;DHT22;1487;51.470;6.938;2023-04-03T12:00:59;17.00;44.70
2955;DHT22;1487;51.470;6.938;2023-04-03T12:07:01;16.60;43.70
2955;DHT22;1487;51.470;6.938;2023-04-03T12:09:58;16.20;44.40
2955;DHT22;1487;51.470;6.938;2023-04-03T12:12:37;16.60;45.20
2955;DHT22;1487;51.470;6.938;2023-04-03T12:18:42;17.20;43.70
2955;DHT22;1487;51.470;6.938;2023-04-03T12:21:09;16.80;43.80
2955;DHT22;1487;51.470;6.938;2023-04-03T12:24:00;17.50;44.90
2955;DHT22;1487;51.470;6.938;2023-04-03T12:26:32;17.60;44.70
2955;DHT22;1487;51.470;6.938;2023-04-03T12:29:02;17.80;44.90
2955;DHT22;1487;51.470;6.938;2023-04-03T12:31:41;18.20;44.90
2955;DHT22;1487;51.470;6.938;2023-04-03T12:34:18;18.10;44.70
2955;DHT22;1487;51.470;6.938;2023-04-03T12:37:00;17.40;45.00
2955;DHT22;1487;51.470;6.938;2023-04-03T12:39:53;16.80;45.60
2955;DHT22;1487;51.470;6.938;2023-04-03T12:42:37;17.50;44.00
2955;DHT22;1487;51.470;6.938;2023-04-03T12:45:15;17.30;43.50
2955;DHT22;1487;51.470;6.938;2023-04-03T12:47:44;17.10;44.50
2955;DHT22;1487;51.470;6.938;2023-04-03T12:50:21;17.10;45.60
2955;DHT22;1487;51.470;6.938;2023-04-03T12:52:52;17.40;46.20
2955;DHT22;1487;51.470;6.938;2023-04-03T12:55:23;17.50;44.60
2955;DHT22;1487;51.470;6.938;2023-04-03T12:57:49;17.90;43.50
2955;DHT22;1487;51.470;6.938;2023-04-03T13:00:35;17.80;44.30
2955;DHT22;1487;51.470;6.938;2023-04-03T13:03:06;17.60;44.30
2955;DHT22;1487;51.470;6.938;2023-04-03T13:05:33;17.80;45.50
2955;DHT22;1487;51.470;6.938;2023-04-03T13:08:04;17.90;43.50
2955;DHT22;1487;51.470;6.938;2023-04-03T13:10:35;18.00;43.90
2955;DHT22;1487;51.470;6.938;2023-04-03T13:13:13;17.50;42.90
2955;DHT22;1487;51.470;6.938;2023-04-03T13:15:43;17.40;43.70
2955;DHT22;1487;51.470;6.938;2023-04-03T13:18:26;17.40;43.40
2955;DHT22;1487;51.470;6.938;2023-04-03T13:20:59;17.40;43.80
2955;DHT22;1487;51.470;6.938;2023-04-03T13:23:28;17.50;44.70
2955;DHT22;1487;51.470;6.938;2023-04-03T13:25:57;18.00;45.50
2955;DHT22;1487;51.470;6.938;2023-04-03T13:28:28;17.60;44.60
2955;DHT22;1487;51.470;6.938;2023-04-03T13:31:02;17.80;44.20
2955;DHT22;1487;51.470;6.938;2023-04-03T13:33:32;17.90;44.60
2955;DHT22;1487;51.470;6.938;2023-04-03T13:36:04;17.60;44.50
2955;DHT22;1487;51.470;6.938;2023-04-03T13:38:32;17.60;45.50
2955;DHT22;1487;51.470;6.938;2023-04-03T13:41:05;17.00;44.10
2955;DHT22;1487;51.470;6.938;2023-04-03T13:43:35;17.30;45.20
2955;DHT22;1487;51.470;6.938;2023-04-03T13:46:05;17.20;45.90
2955;DHT22;1487;51.470;6.938;2023-04-03T13:48:48;17.70;45.30
2955;DHT22;1487;51.470;6.938;2023-04-03T13:51:21;17.90;44.80
2955;DHT22;1487;51.470;6.938;2023-04-03T13:53:51;17.70;43.50
2955;DHT22;1487;51.470;6.938;2023-04-03T13:56:24;17.20;43.30
2955;DHT22;1487;51.470;6.938;2023-04-03T13:58:57;16.90;44.10
2955;DHT22;1487;51.470;6.938;2023-04-03T14:01:25;16.50;43.40
2955;DHT22;1487;51.470;6.938;2023-04-03T14:03:55;16.60;44.60
2955;DHT22;1487;51.470;6.938;2023-04-03T14:06:23;16.30;44.60
2955;DHT22;1487;51.470;6.938;2023-04-03T14:08:50;16.30;45.00
2955;DHT22;1487;51.470;6.938;2023-04-03T14:11:19;16.40;45.20
2955;DHT22;1487;51.470;6.938;2023-04-03T14:13:50;16.40;46.10
2955;DHT22;1487;51.470;6.938;2023-04-03T14:16:20;16.00;45.70
2955;DHT22;1487;51.470;6.938;2023-04-03T14:18:48;16.00;46.00
2955;DHT22;1487;51.470;6.938;2023-04-03T14:21:16;16.00;46.30
2955;DHT22;1487;51.470;6.938;2023-04-03T14:23:44;15.90;46.70
2955;DHT22;1487;51.470;6.938;2023-04-03T14:26:12;15.90;46.30
2955;DHT22;1487;51.470;6.938;2023-04-03T14:28:42;15.60;47.00
2955;DHT22;1487;51.470;6.938;2023-04-03T14:31:11;15.70;46.60
2955;DHT22;1487;51.470;6.938;2023-04-03T14:33:38;15.70;46.40
2955;DHT22;1487;51.470;6.938;2023-04-03T14:36:12;15.50;47.40
2955;DHT22;1487;51.470;6.938;2023-04-03T14:38:40;15.50;48.00
2955;DHT22;1487;51.470;6.938;2023-04-03T14:41:07;15.90;48.30
2955;DHT22;1487;51.470;6.938;2023-04-03T14:43:34;16.30;47.00
2955;DHT22;1487;51.470;6.938;2023-04-03T14:46:01;16.20;46.60
2955;DHT22;1487;51.470;6.938;2023-04-03T14:48:29;15.90;46.60
2955;DHT22;1487;51.470;6.938;2023-04-03T14:50:57;15.60;46.80
2955;DHT22;1487;51.470;6.938;2023-04-03T14:53:23;15.80;46.20
2955;DHT22;1487;51.470;6.938;2023-04-03T14:55:51;15.70;46.30
2955;DHT22;1487;51.470;6.938;2023-04-03T14:58:20;15.30;46.10
2955;DHT22;1487;51.470;6.938;2023-04-03T15:00:47;15.00;46.40
2955;DHT22;1487;51.470;6.938;2023-04-03T15:03:15;15.00;46.70
2955;DHT22;1487;51.470;6.938;2023-04-03T15:05:45;14.90;46.30
2955;DHT22;1487;51.470;6.938;2023-04-03T15:08:18;14.50;46.40
2955;DHT22;1487;51.470;6.938;2023-04-03T15:10:46;13.80;46.90
2955;DHT22;1487;51.470;6.938;2023-04-03T15:13:13;13.40;47.70
2955;DHT22;1487;51.470;6.938;2023-04-03T15:15:40;13.40;49.00
2955;DHT22;1487;51.470;6.938;2023-04-03T15:18:10;13.80;48.90
2955;DHT22;1487;51.470;6.938;2023-04-03T15:20:40;13.80;48.30
2955;DHT22;1487;51.470;6.938;2023-04-03T15:23:11;13.70;48.70
2955;DHT22;1487;51.470;6.938;2023-04-03T15:25:38;13.40;49.20
2955;DHT22;1487;51.470;6.938;2023-04-03T15:28:05;12.90;48.80
2955;DHT22;1487;51.470;6.938;2023-04-03T15:30:33;12.30;49.20
2955;DHT22;1487;51.470;6.938;2023-04-03T15:33:03;12.00;50.90
2955;DHT22;1487;51.470;6.938;2023-04-03T15:35:29;11.70;51.50
2955;DHT22;1487;51.470;6.938;2023-04-03T15:37:56;11.40;51.40
2955;DHT22;1487;51.470;6.938;2023-04-03T15:40:24;11.00;51.90
2955;DHT22;1487;51.470;6.938;2023-04-03T15:42:51;10.50;52.20
2955;DHT22;1487;51.470;6.938;2023-04-03T15:45:18;10.30;53.30
2955;DHT22;1487;51.470;6.938;2023-04-03T15:47:45;10.10;53.50
2955;DHT22;1487;51.470;6.938;2023-04-03T15:50:11;10.00;54.20
2955;DHT22;1487;51.470;6.938;2023-04-03T15:52:38;9.80;54.90
2955;DHT22;1487;51.470;6.938;2023-04-03T15:55:05;9.60;55.70
2955;DHT22;1487;51.470;6.938;2023-04-03T15:57:33;9.50;56.30
2955;DHT22;1487;51.470;6.938;2023-04-03T16:00:00;9.30;56.70
2955;DHT22;1487;51.470;6.938;2023-04-03T16:02:27;9.20;57.20
2955;DHT22;1487;51.470;6.938;2023-04-03T16:04:54;9.20;57.00
2955;DHT22;1487;51.470;6.938;2023-04-03T16:07:21;9.10;56.50
2955;DHT22;1487;51.470;6.938;2023-04-03T16:09:48;9.10;56.90
2955;DHT22;1487;51.470;6.938;2023-04-03T16:12:15;9.00;57.20
2955;DHT22;1487;51.470;6.938;2023-04-03T16:14:43;8.80;57.60
2955;DHT22;1487;51.470;6.938;2023-04-03T16:17:10;8.80;57.10
2955;DHT22;1487;51.470;6.938;2023-04-03T16:19:37;8.70;57.00
2955;DHT22;1487;51.470;6.938;2023-04-03T16:22:05;8.70;57.00
2955;DHT22;1487;51.470;6.938;2023-04-03T16:24:31;8.60;57.10
2955;DHT22;1487;51.470;6.938;2023-04-03T16:26:58;8.50;57.90
2955;DHT22;1487;51.470;6.938;2023-04-03T16:29:25;8.50;58.70
2955;DHT22;1487;51.470;6.938;2023-04-03T16:31:53;8.40;58.90
2955;DHT22;1487;51.470;6.938;2023-04-03T16:34:20;8.30;58.50
2955;DHT22;1487;51.470;6.938;2023-04-03T16:36:47;8.20;57.90
2955;DHT22;1487;51.470;6.938;2023-04-03T16:39:14;8.10;57.80
2955;DHT22;1487;51.470;6.938;2023-04-03T16:41:41;8.10;57.90